sensor_id;sensor_type;location;lat;lon;timestamp;pressure;altitude;pressure_sealevel;temperature;humidity
70468;BME280;57934;51.532;7.684;2023-05-03T00:00:22;101578.38;;;5.35;80.61
70468;BME280;57934;51.532;7.684;2023-05-03T00:02:49;101576.34;;;5.38;80.23
70468;BME280;57934;51.532;7.684;2023-05-03T00:05:15;101573.25;;;5.33;80.66
70468;BME280;57934;51.532;7.684;2023-05-03T00:07:43;101573.06;;;5.25;80.56
70468;BME280;57934;51.532;7.684;2023-05-03T00:10:10;101570.59;;;5.23;79.98
70468;BME280;57934;51.532;7.684;2023-05-03T00:12:39;101570.84;;;5.20;79.46
70468;BME280;57934;51.532;7.684;2023-05-03T00:15:06;101562.91;;;5.11;79.83
70468;BME280;57934;51.532;7.684;2023-05-03T00:17:32;101567.81;;;5.04;80.36
70468;BME280;57934;51.532;7.684;2023-05-03T00:19:58;101564.94;;;5.07;80.43
70468;BME280;57934;51.532;7.684;2023-05-03T00:22:25;101566.28;;;5.01;79.61
70468;BME280;57934;51.532;7.684;2023-05-03T00:24:51;101565.00;;;4.96;80.47
70468;BME280;57934;51.532;7.684;2023-05-03T00:27:17;101564.44;;;4.92;81.38
70468;BME280;57934;51.532;7.684;2023-05-03T00:29:44;101568.81;;;4.92;80.96
70468;BME280;57934;51.532;7.684;2023-05-03T00:32:10;101563.25;;;4.85;80.66
70468;BME280;57934;51.532;7.684;2023-05-03T00:34:37;101558.38;;;4.81;81.66
70468;BME280;57934;51.532;7.684;2023-05-03T00:37:03;101561.53;;;4.74;81.00
70468;BME280;57934;51.532;7.684;2023-05-03T00:39:30;101559.41;;;4.68;81.21
70468;BME280;57934;51.532;7.684;2023-05-03T00:41:57;101559.72;;;4.75;81.43
70468;BME280;57934;51.532;7.684;2023-05-03T00:44:23;101552.59;;;4.77;81.02
70468;BME280;57934;51.532;7.684;2023-05-03T00:46:50;101556.41;;;4.73;80.40
70468;BME280;57934;51.532;7.684;2023-05-03T00:49:17;101554.91;;;4.59;81.42
70468;BME280;57934;51.532;7.684;2023-05-03T00:51:43;101553.38;;;4.57;81.30
70468;BME280;57934;51.532;7.684;2023-05-03T00:54:10;101548.28;;;4.44;81.35
70468;BME280;57934;51.532;7.684;2023-05-03T00:56:37;101553.63;;;4.53;82.03
70468;BME280;57934;51.532;7.684;2023-05-03T00:59:07;101558.47;;;4.58;81.45
70468;BME280;57934;51.532;7.684;2023-05-03T01:01:33;101557.28;;;4.51;82.25
70468;BME280;57934;51.532;7.684;2023-05-03T01:04:00;101561.44;;;4.53;81.54
70468;BME280;57934;51.532;7.684;2023-05-03T01:09:33;101571.16;;;4.63;81.68
70468;BME280;57934;51.532;7.684;2023-05-03T01:12:06;101565.22;;;4.61;80.71
70468;BME280;57934;51.532;7.684;2023-05-03T01:14:51;101569.88;;;4.57;80.96
70468;BME280;57934;51.532;7.684;2023-05-03T01:17:22;101585.16;;;4.62;81.08
70468;BME280;57934;51.532;7.684;2023-05-03T01:19:54;101583.03;;;4.55;81.54
70468;BME280;57934;51.532;7.684;2023-05-03T01:22:37;101579.84;;;4.52;82.10
70468;BME280;57934;51.532;7.684;2023-05-03T01:25:08;101575.44;;;4.52;81.99
70468;BME280;57934;51.532;7.684;2023-05-03T01:27:36;101582.81;;;4.47;82.37
70468;BME280;57934;51.532;7.684;2023-05-03T01:30:12;101577.22;;;4.52;82.88
70468;BME280;57934;51.532;7.684;2023-05-03T01:35:37;101579.03;;;4.40;83.25
70468;BME280;57934;51.532;7.684;2023-05-03T01:38:06;101582.38;;;4.31;82.88
70468;BME280;57934;51.532;7.684;2023-05-03T01:40:44;101580.72;;;4.30;83.04
70468;BME280;57934;51.532;7.684;2023-05-03T01:43:12;101579.66;;;4.33;82.68
70468;BME280;57934;51.532;7.684;2023-05-03T01:45:41;101580.47;;;4.44;83.20
70468;BME280;57934;51.532;7.684;2023-05-03T01:48:13;101575.94;;;4.35;83.66
70468;BME280;57934;51.532;7.684;2023-05-03T01:50:40;101585.47;;;4.25;83.08
70468;BME280;57934;51.532;7.684;2023-05-03T01:53:06;101585.00;;;4.20;83.35
70468;BME280;57934;51.532;7.684;2023-05-03T01:55:32;101588.31;;;4.22;83.31
70468;BME280;57934;51.532;7.684;2023-05-03T01:57:58;101586.53;;;4.11;83.58
70468;BME280;57934;51.532;7.684;2023-05-03T02:00:24;101591.19;;;4.07;83.67
70468;BME280;57934;51.532;7.684;2023-05-03T02:02:51;101591.75;;;4.11;83.71
70468;BME280;57934;51.532;7.684;2023-05-03T02:05:17;101599.84;;;4.08;83.77
70468;BME280;57934;51.532;7.684;2023-05-03T02:07:43;101596.72;;;4.03;84.15
70468;BME280;57934;51.532;7.684;2023-05-03T02:10:09;101598.63;;;4.01;83.70
70468;BME280;57934;51.532;7.684;2023-05-03T02:12:40;101603.03;;;4.00;84.15
70468;BME280;57934;51.532;7.684;2023-05-03T02:15:07;101601.47;;;3.98;84.04
70468;BME280;57934;51.532;7.684;2023-05-03T02:17:34;101605.38;;;3.92;84.13
70468;BME280;57934;51.532;7.684;2023-05-03T02:20:00;101601.25;;;4.01;84.19
70468;BME280;57934;51.532;7.684;2023-05-03T02:22:26;101600.16;;;4.03;83.86
70468;BME280;57934;51.532;7.684;2023-05-03T02:24:53;101604.31;;;3.95;83.81
70468;BME280;57934;51.532;7.684;2023-05-03T02:27:19;101603.97;;;3.88;83.42
70468;BME280;57934;51.532;7.684;2023-05-03T02:29:45;101611.66;;;3.78;84.19
70468;BME280;57934;51.532;7.684;2023-05-03T02:32:13;101604.66;;;3.79;83.39
70468;BME280;57934;51.532;7.684;2023-05-03T02:34:39;101612.72;;;3.76;84.50
70468;BME280;57934;51.532;7.684;2023-05-03T02:37:08;101617.38;;;3.83;84.14
70468;BME280;57934;51.532;7.684;2023-05-03T02:39:34;101620.91;;;3.82;84.05
70468;BME280;57934;51.532;7.684;2023-05-03T02:42:00;101617.47;;;3.82;84.00
70468;BME280;57934;51.532;7.684;2023-05-03T02:44:27;101627.44;;;3.77;84.03
70468;BME280;57934;51.532;7.684;2023-05-03T02:46:53;101616.25;;;3.75;84.76
70468;BME280;57934;51.532;7.684;2023-05-03T02:49:20;101621.59;;;3.73;84.43
70468;BME280;57934;51.532;7.684;2023-05-03T02:51:46;101622.44;;;3.74;84.62
70468;BME280;57934;51.532;7.684;2023-05-03T02:54:12;101620.41;;;3.66;84.19
70468;BME280;57934;51.532;7.684;2023-05-03T02:56:38;101614.59;;;3.74;84.04
70468;BME280;57934;51.532;7.684;2023-05-03T02:59:04;101614.75;;;3.72;84.55
70468;BME280;57934;51.532;7.684;2023-05-03T03:01:32;101612.81;;;3.63;84.43
70468;BME280;57934;51.532;7.684;2023-05-03T03:03:59;101616.00;;;3.55;84.74
70468;BME280;57934;51.532;7.684;2023-05-03T03:06:25;101618.09;;;3.50;84.53
70468;BME280;57934;51.532;7.684;2023-05-03T03:08:51;101620.25;;;3.56;84.70
70468;BME280;57934;51.532;7.684;2023-05-03T03:11:17;101615.63;;;3.49;84.20
70468;BME280;57934;51.532;7.684;2023-05-03T03:13:43;101615.16;;;3.55;84.75
70468;BME280;57934;51.532;7.684;2023-05-03T03:16:09;101606.50;;;3.54;84.38
70468;BME280;57934;51.532;7.684;2023-05-03T03:18:35;101611.47;;;3.46;85.10
70468;BME280;57934;51.532;7.684;2023-05-03T03:21:02;101612.75;;;3.41;84.70
70468;BME280;57934;51.532;7.684;2023-05-03T03:23:29;101610.38;;;3.38;85.20
70468;BME280;57934;51.532;7.684;2023-05-03T03:25:57;101615.25;;;3.42;84.84
70468;BME280;57934;51.532;7.684;2023-05-03T03:28:24;101615.69;;;3.36;84.86
70468;BME280;57934;51.532;7.684;2023-05-03T03:30:50;101614.03;;;3.35;84.74
70468;BME280;57934;51.532;7.684;2023-05-03T03:33:21;101605.97;;;3.27;85.12
70468;BME280;57934;51.532;7.684;2023-05-03T03:35:47;101606.19;;;3.24;85.59
70468;BME280;57934;51.532;7.684;2023-05-03T03:38:14;101605.19;;;3.14;85.33
70468;BME280;57934;51.532;7.684;2023-05-03T03:40:48;101599.03;;;3.15;85.37
70468;BME280;57934;51.532;7.684;2023-05-03T03:43:15;101604.81;;;3.07;85.53
70468;BME280;57934;51.532;7.684;2023-05-03T03:45:41;101603.03;;;3.07;85.88
70468;BME280;57934;51.532;7.684;2023-05-03T03:48:08;101604.19;;;3.03;85.36
70468;BME280;57934;51.532;7.684;2023-05-03T03:50:35;101603.81;;;2.97;86.17
70468;BME280;57934;51.532;7.684;2023-05-03T03:53:01;101600.47;;;2.95;86.44
70468;BME280;57934;51.532;7.684;2023-05-03T03:55:27;101604.38;;;2.89;86.66
70468;BME280;57934;51.532;7.684;2023-05-03T03:57:54;101611.28;;;3.01;86.14
70468;BME280;57934;51.532;7.684;2023-05-03T04:00:24;101604.19;;;3.03;86.15
70468;BME280;57934;51.532;7.684;2023-05-03T04:02:57;101607.28;;;3.08;85.98
70468;BME280;57934;51.532;7.684;2023-05-03T04:05:24;101595.66;;;3.01;85.74
70468;BME280;57934;51.532;7.684;2023-05-03T04:07:50;101594.44;;;2.94;86.35
70468;BME280;57934;51.532;7.684;2023-05-03T04:10:18;101595.88;;;2.98;86.61
70468;BME280;57934;51.532;7.684;2023-05-03T04:12:44;101594.94;;;2.99;86.46
70468;BME280;57934;51.532;7.684;2023-05-03T04:15:12;101596.59;;;3.00;86.28
70468;BME280;57934;51.532;7.684;2023-05-03T04:17:39;101580.22;;;2.98;86.30
70468;BME280;57934;51.532;7.684;2023-05-03T04:20:08;101593.25;;;2.98;86.24
70468;BME280;57934;51.532;7.684;2023-05-03T04:22:37;101593.34;;;3.09;86.79
70468;BME280;57934;51.532;7.684;2023-05-03T04:25:10;101589.72;;;3.23;86.46
70468;BME280;57934;51.532;7.684;2023-05-03T04:27:40;101587.94;;;3.24;86.00
70468;BME280;57934;51.532;7.684;2023-05-03T04:30:07;101581.78;;;3.36;86.03
70468;BME280;57934;51.532;7.684;2023-05-03T04:32:33;101581.47;;;3.41;86.24
70468;BME280;57934;51.532;7.684;2023-05-03T04:35:07;101581.59;;;3.50;86.59
70468;BME280;57934;51.532;7.684;2023-05-03T04:37:37;101583.53;;;3.59;85.54
70468;BME280;57934;51.532;7.684;2023-05-03T04:40:04;101578.31;;;3.71;85.56
70468;BME280;57934;51.532;7.684;2023-05-03T04:42:38;101585.44;;;3.69;85.32
70468;BME280;57934;51.532;7.684;2023-05-03T04:45:05;101582.25;;;3.76;85.26
70468;BME280;57934;51.532;7.684;2023-05-03T04:47:34;101580.84;;;3.72;85.35
70468;BME280;57934;51.532;7.684;2023-05-03T04:50:00;101571.59;;;3.79;85.12
70468;BME280;57934;51.532;7.684;2023-05-03T04:52:27;101566.09;;;3.82;85.06
70468;BME280;57934;51.532;7.684;2023-05-03T04:54:54;101565.88;;;3.86;85.19
70468;BME280;57934;51.532;7.684;2023-05-03T04:57:21;101568.75;;;3.94;85.75
70468;BME280;57934;51.532;7.684;2023-05-03T04:59:47;101577.41;;;4.05;84.72
70468;BME280;57934;51.532;7.684;2023-05-03T05:02:13;101578.94;;;4.08;84.66
70468;BME280;57934;51.532;7.684;2023-05-03T05:04:39;101576.09;;;4.11;84.56
70468;BME280;57934;51.532;7.684;2023-05-03T05:07:05;101578.22;;;4.17;84.38
70468;BME280;57934;51.532;7.684;2023-05-03T05:09:32;101582.88;;;4.25;84.37
70468;BME280;57934;51.532;7.684;2023-05-03T05:12:01;101581.16;;;4.35;84.82
70468;BME280;57934;51.532;7.684;2023-05-03T05:14:34;101589.13;;;4.45;84.45
70468;BME280;57934;51.532;7.684;2023-05-03T05:17:01;101597.91;;;4.44;84.58
70468;BME280;57934;51.532;7.684;2023-05-03T05:19:27;101605.97;;;4.52;84.10
70468;BME280;57934;51.532;7.684;2023-05-03T05:21:53;101608.81;;;4.60;83.63
70468;BME280;57934;51.532;7.684;2023-05-03T05:24:21;101612.84;;;4.64;83.42
70468;BME280;57934;51.532;7.684;2023-05-03T05:26:48;101614.84;;;4.72;83.89
70468;BME280;57934;51.532;7.684;2023-05-03T05:29:16;101619.59;;;4.78;83.40
70468;BME280;57934;51.532;7.684;2023-05-03T05:31:42;101618.22;;;4.95;82.71
70468;BME280;57934;51.532;7.684;2023-05-03T05:34:09;101623.25;;;5.19;82.16
70468;BME280;57934;51.532;7.684;2023-05-03T05:36:36;101621.78;;;5.26;81.92
70468;BME280;57934;51.532;7.684;2023-05-03T05:39:03;101620.53;;;5.41;81.40
70468;BME280;57934;51.532;7.684;2023-05-03T05:41:30;101620.31;;;5.65;80.01
70468;BME280;57934;51.532;7.684;2023-05-03T05:43:57;101621.47;;;5.82;79.68
70468;BME280;57934;51.532;7.684;2023-05-03T05:46:24;101626.09;;;5.90;78.81
70468;BME280;57934;51.532;7.684;2023-05-03T05:48:52;101632.53;;;6.07;78.30
70468;BME280;57934;51.532;7.684;2023-05-03T05:51:18;101638.13;;;6.23;78.38
70468;BME280;57934;51.532;7.684;2023-05-03T05:53:44;101636.69;;;6.40;77.59
70468;BME280;57934;51.532;7.684;2023-05-03T05:56:10;101645.28;;;6.52;77.05
70468;BME280;57934;51.532;7.684;2023-05-03T05:58:36;101651.09;;;6.65;76.40
70468;BME280;57934;51.532;7.684;2023-05-03T06:01:03;101651.38;;;6.62;75.33
70468;BME280;57934;51.532;7.684;2023-05-03T06:03:33;101651.44;;;6.41;76.27
70468;BME280;57934;51.532;7.684;2023-05-03T06:06:02;101657.81;;;6.17;75.80
70468;BME280;57934;51.532;7.684;2023-05-03T06:08:28;101665.97;;;6.24;76.58
70468;BME280;57934;51.532;7.684;2023-05-03T06:10:54;101662.63;;;6.12;76.74
70468;BME280;57934;51.532;7.684;2023-05-03T06:13:21;101668.94;;;6.10;77.69
70468;BME280;57934;51.532;7.684;2023-05-03T06:15:48;101665.16;;;6.24;77.78
70468;BME280;57934;51.532;7.684;2023-05-03T06:18:14;101664.44;;;6.52;76.52
70468;BME280;57934;51.532;7.684;2023-05-03T06:20:41;101663.66;;;6.31;76.67
70468;BME280;57934;51.532;7.684;2023-05-03T06:23:07;101670.56;;;6.01;76.47
70468;BME280;57934;51.532;7.684;2023-05-03T06:25:35;101662.03;;;5.88;78.14
70468;BME280;57934;51.532;7.684;2023-05-03T06:28:03;101670.03;;;6.07;78.51
70468;BME280;57934;51.532;7.684;2023-05-03T06:30:32;101677.88;;;5.86;78.72
70468;BME280;57934;51.532;7.684;2023-05-03T06:33:04;101675.66;;;6.03;79.12
70468;BME280;57934;51.532;7.684;2023-05-03T06:35:30;101676.28;;;6.16;78.27
70468;BME280;57934;51.532;7.684;2023-05-03T06:37:57;101674.41;;;6.28;77.88
70468;BME280;57934;51.532;7.684;2023-05-03T06:40:23;101675.59;;;6.44;77.76
70468;BME280;57934;51.532;7.684;2023-05-03T06:42:50;101673.00;;;6.54;77.38
70468;BME280;57934;51.532;7.684;2023-05-03T06:45:35;101677.78;;;6.39;76.78
70468;BME280;57934;51.532;7.684;2023-05-03T06:48:01;101677.16;;;6.57;76.72
70468;BME280;57934;51.532;7.684;2023-05-03T06:50:27;101674.69;;;6.65;76.24
70468;BME280;57934;51.532;7.684;2023-05-03T06:52:53;101675.53;;;6.65;76.70
70468;BME280;57934;51.532;7.684;2023-05-03T06:55:19;101671.28;;;6.84;76.67
70468;BME280;57934;51.532;7.684;2023-05-03T06:57:45;101669.66;;;6.83;75.98
70468;BME280;57934;51.532;7.684;2023-05-03T07:00:14;101663.31;;;7.05;76.45
70468;BME280;57934;51.532;7.684;2023-05-03T07:02:41;101663.19;;;6.97;74.73
70468;BME280;57934;51.532;7.684;2023-05-03T07:05:07;101669.03;;;7.20;74.87
70468;BME280;57934;51.532;7.684;2023-05-03T07:07:33;101670.38;;;7.33;74.55
70468;BME280;57934;51.532;7.684;2023-05-03T07:09:59;101662.81;;;7.21;74.25
70468;BME280;57934;51.532;7.684;2023-05-03T07:12:25;101671.50;;;7.60;74.72
70468;BME280;57934;51.532;7.684;2023-05-03T07:14:56;101669.03;;;7.49;73.22
70468;BME280;57934;51.532;7.684;2023-05-03T07:17:22;101672.91;;;7.45;72.41
70468;BME280;57934;51.532;7.684;2023-05-03T07:19:49;101661.44;;;7.55;73.10
70468;BME280;57934;51.532;7.684;2023-05-03T07:22:16;101665.97;;;7.63;71.56
70468;BME280;57934;51.532;7.684;2023-05-03T07:24:42;101662.09;;;7.77;71.22
70468;BME280;57934;51.532;7.684;2023-05-03T07:27:08;101662.47;;;7.92;71.99
70468;BME280;57934;51.532;7.684;2023-05-03T07:29:34;101658.72;;;8.04;71.61
70468;BME280;57934;51.532;7.684;2023-05-03T07:32:00;101659.44;;;8.33;70.63
70468;BME280;57934;51.532;7.684;2023-05-03T07:34:26;101655.38;;;8.11;69.94
70468;BME280;57934;51.532;7.684;2023-05-03T07:36:52;101650.97;;;8.77;68.58
70468;BME280;57934;51.532;7.684;2023-05-03T07:39:18;101649.34;;;8.94;68.27
70468;BME280;57934;51.532;7.684;2023-05-03T07:41:44;101643.09;;;8.95;68.60
70468;BME280;57934;51.532;7.684;2023-05-03T07:44:10;101645.59;;;8.96;66.45
70468;BME280;57934;51.532;7.684;2023-05-03T07:46:36;101645.44;;;9.33;65.79
70468;BME280;57934;51.532;7.684;2023-05-03T07:49:03;101645.97;;;9.55;63.88
70468;BME280;57934;51.532;7.684;2023-05-03T07:51:36;101642.34;;;9.56;63.69
70468;BME280;57934;51.532;7.684;2023-05-03T07:54:03;101639.38;;;9.77;63.36
70468;BME280;57934;51.532;7.684;2023-05-03T07:56:30;101639.78;;;10.50;61.70
70468;BME280;57934;51.532;7.684;2023-05-03T07:58:56;101645.34;;;10.90;59.33
70468;BME280;57934;51.532;7.684;2023-05-03T08:01:23;101639.28;;;11.71;55.98
70468;BME280;57934;51.532;7.684;2023-05-03T08:03:49;101636.00;;;11.61;56.01
70468;BME280;57934;51.532;7.684;2023-05-03T08:06:16;101631.56;;;13.27;53.53
70468;BME280;57934;51.532;7.684;2023-05-03T08:08:42;101630.22;;;13.23;52.50
70468;BME280;57934;51.532;7.684;2023-05-03T08:11:08;101626.66;;;14.21;49.66
70468;BME280;57934;51.532;7.684;2023-05-03T08:13:34;101623.94;;;15.01;47.08
70468;BME280;57934;51.532;7.684;2023-05-03T08:16:00;101617.22;;;15.70;46.00
70468;BME280;57934;51.532;7.684;2023-05-03T08:18:26;101631.13;;;14.20;48.73
70468;BME280;57934;51.532;7.684;2023-05-03T08:20:52;101626.56;;;15.94;44.76
70468;BME280;57934;51.532;7.684;2023-05-03T08:23:18;101623.75;;;16.43;43.02
70468;BME280;57934;51.532;7.684;2023-05-03T08:25:46;101624.31;;;16.87;42.82
70468;BME280;57934;51.532;7.684;2023-05-03T08:28:12;101620.19;;;18.62;40.46
70468;BME280;57934;51.532;7.684;2023-05-03T08:30:39;101624.84;;;16.69;41.60
70468;BME280;57934;51.532;7.684;2023-05-03T08:33:05;101628.00;;;15.96;43.43
70468;BME280;57934;51.532;7.684;2023-05-03T08:35:31;101621.56;;;14.70;45.95
70468;BME280;57934;51.532;7.684;2023-05-03T08:37:57;101617.69;;;15.31;43.54
70468;BME280;57934;51.532;7.684;2023-05-03T08:40:25;101624.88;;;14.72;45.44
70468;BME280;57934;51.532;7.684;2023-05-03T08:42:54;101627.44;;;15.23;45.35
70468;BME280;57934;51.532;7.684;2023-05-03T08:45:21;101610.03;;;17.21;41.90
70468;BME280;57934;51.532;7.684;2023-05-03T08:47:52;101610.41;;;17.98;38.70
70468;BME280;57934;51.532;7.684;2023-05-03T08:50:19;101610.81;;;17.02;40.56
70468;BME280;57934;51.532;7.684;2023-05-03T08:52:46;101613.09;;;17.78;39.04
70468;BME280;57934;51.532;7.684;2023-05-03T08:55:12;101614.94;;;17.17;39.11
70468;BME280;57934;51.532;7.684;2023-05-03T08:57:38;101622.03;;;18.68;38.89
70468;BME280;57934;51.532;7.684;2023-05-03T09:00:05;101618.38;;;19.51;37.37
70468;BME280;57934;51.532;7.684;2023-05-03T09:02:36;101624.13;;;20.16;35.38
70468;BME280;57934;51.532;7.684;2023-05-03T09:05:29;101622.13;;;20.12;35.01
70468;BME280;57934;51.532;7.684;2023-05-03T09:08:09;101626.19;;;19.77;35.61
70468;BME280;57934;51.532;7.684;2023-05-03T09:10:39;101624.91;;;18.73;36.96
70468;BME280;57934;51.532;7.684;2023-05-03T09:13:06;101634.00;;;18.01;38.25
70468;BME280;57934;51.532;7.684;2023-05-03T09:15:33;101639.75;;;17.11;38.61
70468;BME280;57934;51.532;7.684;2023-05-03T09:18:17;101634.72;;;19.68;35.98
70468;BME280;57934;51.532;7.684;2023-05-03T09:20:44;101615.41;;;22.41;32.26
70468;BME280;57934;51.532;7.684;2023-05-03T09:23:18;101624.06;;;18.15;37.01
70468;BME280;57934;51.532;7.684;2023-05-03T09:25:47;101617.09;;;18.20;38.33
70468;BME280;57934;51.532;7.684;2023-05-03T09:28:15;101615.63;;;19.58;35.42
70468;BME280;57934;51.532;7.684;2023-05-03T09:30:42;101609.44;;;19.39;36.36
70468;BME280;57934;51.532;7.684;2023-05-03T09:33:08;101607.44;;;19.96;34.77
70468;BME280;57934;51.532;7.684;2023-05-03T09:35:36;101612.38;;;18.99;35.42
70468;BME280;57934;51.532;7.684;2023-05-03T09:38:02;101608.31;;;19.46;35.44
70468;BME280;57934;51.532;7.684;2023-05-03T09:40:28;101605.44;;;19.91;35.07
70468;BME280;57934;51.532;7.684;2023-05-03T09:43:08;101611.88;;;19.40;35.03
70468;BME280;57934;51.532;7.684;2023-05-03T09:45:35;101603.97;;;19.77;35.01
70468;BME280;57934;51.532;7.684;2023-05-03T09:48:02;101598.09;;;18.87;36.20
70468;BME280;57934;51.532;7.684;2023-05-03T09:50:32;101597.16;;;18.23;36.65
70468;BME280;57934;51.532;7.684;2023-05-03T09:53:03;101600.94;;;18.53;37.33
70468;BME280;57934;51.532;7.684;2023-05-03T09:55:34;101590.13;;;17.44;38.02
70468;BME280;57934;51.532;7.684;2023-05-03T09:58:01;101596.06;;;17.65;37.96
70468;BME280;57934;51.532;7.684;2023-05-03T10:00:36;101583.06;;;18.54;36.52
70468;BME280;57934;51.532;7.684;2023-05-03T10:03:06;101586.19;;;18.82;37.22
70468;BME280;57934;51.532;7.684;2023-05-03T10:05:39;101589.38;;;19.48;35.62
70468;BME280;57934;51.532;7.684;2023-05-03T10:08:07;101587.81;;;18.83;35.56
70468;BME280;57934;51.532;7.684;2023-05-03T10:10:34;101581.81;;;19.45;35.49
70468;BME280;57934;51.532;7.684;2023-05-03T10:13:02;101568.69;;;20.17;35.84
70468;BME280;57934;51.532;7.684;2023-05-03T10:15:28;101580.41;;;20.34;33.87
70468;BME280;57934;51.532;7.684;2023-05-03T10:17:56;101577.47;;;20.84;32.14
70468;BME280;57934;51.532;7.684;2023-05-03T10:20:34;101574.84;;;21.19;32.36
70468;BME280;57934;51.532;7.684;2023-05-03T10:23:10;101573.19;;;20.35;33.08
70468;BME280;57934;51.532;7.684;2023-05-03T10:25:38;101566.47;;;21.51;32.66
70468;BME280;57934;51.532;7.684;2023-05-03T10:28:06;101561.81;;;21.70;32.37
70468;BME280;57934;51.532;7.684;2023-05-03T10:35:40;101561.41;;;20.06;33.01
70468;BME280;57934;51.532;7.684;2023-05-03T10:38:13;101557.44;;;20.87;32.63
70468;BME280;57934;51.532;7.684;2023-05-03T10:40:41;101555.91;;;19.64;35.03
70468;BME280;57934;51.532;7.684;2023-05-03T10:46:02;101539.28;;;22.69;30.88
70468;BME280;57934;51.532;7.684;2023-05-03T10:48:32;101549.25;;;20.21;32.87
70468;BME280;57934;51.532;7.684;2023-05-03T10:51:30;101541.94;;;19.98;33.83
70468;BME280;57934;51.532;7.684;2023-05-03T10:53:58;101541.13;;;21.12;33.26
70468;BME280;57934;51.532;7.684;2023-05-03T10:56:24;101540.56;;;21.33;32.12
70468;BME280;57934;51.532;7.684;2023-05-03T10:58:50;101551.97;;;20.93;33.18
70468;BME280;57934;51.532;7.684;2023-05-03T11:01:22;101547.59;;;18.78;35.84
70468;BME280;57934;51.532;7.684;2023-05-03T11:08:52;101525.09;;;21.35;31.17
70468;BME280;57934;51.532;7.684;2023-05-03T11:11:19;101529.72;;;20.51;32.25
70468;BME280;57934;51.532;7.684;2023-05-03T11:13:45;101525.84;;;21.01;32.06
70468;BME280;57934;51.532;7.684;2023-05-03T11:16:12;101514.53;;;20.15;33.43
70468;BME280;57934;51.532;7.684;2023-05-03T11:18:38;101522.47;;;18.79;35.15
70468;BME280;57934;51.532;7.684;2023-05-03T11:21:04;101511.16;;;20.49;33.24
70468;BME280;57934;51.532;7.684;2023-05-03T11:23:30;101506.53;;;20.26;33.89
70468;BME280;57934;51.532;7.684;2023-05-03T11:25:58;101506.28;;;20.46;33.05
70468;BME280;57934;51.532;7.684;2023-05-03T11:28:25;101500.66;;;21.02;32.70
70468;BME280;57934;51.532;7.684;2023-05-03T11:30:51;101503.34;;;20.78;32.21
70468;BME280;57934;51.532;7.684;2023-05-03T11:33:16;101503.94;;;19.71;34.19
70468;BME280;57934;51.532;7.684;2023-05-03T11:35:42;101506.03;;;20.90;32.99
70468;BME280;57934;51.532;7.684;2023-05-03T11:38:09;101518.41;;;20.00;33.89
70468;BME280;57934;51.532;7.684;2023-05-03T11:40:35;101506.91;;;19.82;35.38
70468;BME280;57934;51.532;7.684;2023-05-03T11:43:01;101501.75;;;19.00;34.67
70468;BME280;57934;51.532;7.684;2023-05-03T11:45:31;101502.88;;;19.54;34.48
70468;BME280;57934;51.532;7.684;2023-05-03T11:47:57;101501.09;;;20.03;33.28
70468;BME280;57934;51.532;7.684;2023-05-03T11:50:46;101489.66;;;21.62;30.85
70468;BME280;57934;51.532;7.684;2023-05-03T11:53:13;101489.00;;;21.95;31.29
70468;BME280;57934;51.532;7.684;2023-05-03T11:55:41;101487.25;;;20.36;33.16
70468;BME280;57934;51.532;7.684;2023-05-03T11:58:18;101498.03;;;19.99;34.36
70468;BME280;57934;51.532;7.684;2023-05-03T12:00:46;101498.78;;;19.51;34.42
70468;BME280;57934;51.532;7.684;2023-05-03T12:03:20;101496.56;;;20.76;33.43
70468;BME280;57934;51.532;7.684;2023-05-03T12:05:47;101503.03;;;19.16;35.53
70468;BME280;57934;51.532;7.684;2023-05-03T12:08:13;101501.94;;;17.38;37.69
70468;BME280;57934;51.532;7.684;2023-05-03T12:10:41;101514.13;;;16.27;39.25
70468;BME280;57934;51.532;7.684;2023-05-03T12:13:07;101506.44;;;14.99;41.95
70468;BME280;57934;51.532;7.684;2023-05-03T12:15:34;101497.25;;;15.02;42.88
70468;BME280;57934;51.532;7.684;2023-05-03T12:18:07;101501.31;;;14.98;43.84
70468;BME280;57934;51.532;7.684;2023-05-03T12:20:34;101496.25;;;15.03;43.98
70468;BME280;57934;51.532;7.684;2023-05-03T12:23:06;101509.25;;;14.70;44.97
70468;BME280;57934;51.532;7.684;2023-05-03T12:25:35;101501.41;;;14.62;43.79
70468;BME280;57934;51.532;7.684;2023-05-03T12:28:03;101498.69;;;14.55;45.09
70468;BME280;57934;51.532;7.684;2023-05-03T12:30:30;101495.25;;;14.25;45.26
70468;BME280;57934;51.532;7.684;2023-05-03T12:32:57;101494.56;;;14.52;46.20
70468;BME280;57934;51.532;7.684;2023-05-03T12:35:24;101490.75;;;14.40;43.14
70468;BME280;57934;51.532;7.684;2023-05-03T12:37:50;101482.97;;;14.53;44.10
70468;BME280;57934;51.532;7.684;2023-05-03T12:40:17;101482.84;;;14.25;44.42
70468;BME280;57934;51.532;7.684;2023-05-03T12:42:44;101473.28;;;14.31;44.76
70468;BME280;57934;51.532;7.684;2023-05-03T12:45:11;101476.66;;;14.03;45.77
70468;BME280;57934;51.532;7.684;2023-05-03T12:47:38;101469.84;;;13.94;46.94
70468;BME280;57934;51.532;7.684;2023-05-03T12:50:04;101466.88;;;14.40;45.58
70468;BME280;57934;51.532;7.684;2023-05-03T12:52:31;101472.72;;;14.50;46.29
70468;BME280;57934;51.532;7.684;2023-05-03T12:54:57;101477.56;;;14.47;45.58
70468;BME280;57934;51.532;7.684;2023-05-03T12:57:23;101475.00;;;14.39;44.68
70468;BME280;57934;51.532;7.684;2023-05-03T12:59:49;101463.13;;;14.35;45.41
70468;BME280;57934;51.532;7.684;2023-05-03T13:02:19;101467.75;;;14.26;45.53
70468;BME280;57934;51.532;7.684;2023-05-03T13:04:46;101463.94;;;14.14;45.82
70468;BME280;57934;51.532;7.684;2023-05-03T13:07:15;101462.13;;;14.36;46.86
70468;BME280;57934;51.532;7.684;2023-05-03T13:09:44;101460.59;;;14.26;46.48
70468;BME280;57934;51.532;7.684;2023-05-03T13:12:13;101453.59;;;14.40;46.43
70468;BME280;57934;51.532;7.684;2023-05-03T13:14:40;101459.34;;;14.22;45.68
70468;BME280;57934;51.532;7.684;2023-05-03T13:17:07;101450.75;;;13.84;44.40